Time;durP1;ratioP1;P1;durP2;ratioP2;P2;SDS_P1;SDS_P2;PMS_P1;PMS_P2;Temp;Humidity;BMP_temperature;BMP_pressure;BME280_temperature;BME280_humidity;BME280_pressure;Samples;Min_cycle;Max_cycle;Signal;HPM_P1;HPM_P2
2022/07/05 00:00:22;;;;;;;14.28;3.00;;;;;;;22.98;50.75;98813.67;1412281;82;81862;-71
2022/07/05 00:02:25;;;;;;;16.05;3.37;;;;;;;22.96;50.85;98812.49;1414010;82;21361;-72
2022/07/05 00:04:26;;;;;;;29.00;3.33;;;;;;;22.93;50.84;98805.27;1414955;82;21027;-72
2022/07/05 00:06:27;;;;;;;22.82;3.87;;;;;;;22.92;50.77;98813.80;1414584;82;81409;-71
2022/07/05 00:08:28;;;;;;;49.23;4.25;;;;;;;22.91;50.68;98814.80;1413958;82;20973;-71
2022/07/05 00:10:30;;;;;;;46.90;4.70;;;;;;;22.90;50.86;98812.27;1414665;82;20959;-72
2022/07/05 00:12:32;;;;;;;54.83;4.90;;;;;;;22.87;50.68;98804.53;1411748;82;81386;-71
2022/07/05 00:14:34;;;;;;;94.75;5.97;;;;;;;22.87;50.60;98810.73;1416979;82;21003;-71
2022/07/05 00:16:35;;;;;;;76.72;5.87;;;;;;;22.86;50.57;98810.90;1415180;82;80840;-72
2022/07/05 00:18:36;;;;;;;29.27;4.20;;;;;;;22.85;50.74;98810.06;1416541;82;20995;-72
2022/07/05 00:20:37;;;;;;;29.50;3.58;;;;;;;22.82;50.94;98809.05;1415959;82;21098;-72
2022/07/05 00:22:38;;;;;;;13.48;3.10;;;;;;;22.71;51.03;98801.23;1414102;82;80996;-71
2022/07/05 00:24:39;;;;;;;17.52;2.85;;;;;;;22.75;51.13;98807.48;1414785;82;21043;-72
2022/07/05 00:26:40;;;;;;;5.72;2.30;;;;;;;22.71;51.06;98814.67;1415578;82;21282;-72
2022/07/05 00:28:41;;;;;;;9.55;2.72;;;;;;;22.67;50.92;98822.19;1414546;82;81557;-72
2022/07/05 00:30:42;;;;;;;29.40;2.98;;;;;;;22.64;50.94;98816.27;1414258;82;21079;-72
2022/07/05 00:32:43;;;;;;;14.38;2.98;;;;;;;22.59;50.91;98820.27;1414608;82;21847;-71
2022/07/05 00:34:44;;;;;;;5.92;2.80;;;;;;;22.57;50.89;98824.97;1413639;82;81711;-72
2022/07/05 00:36:45;;;;;;;3.47;2.35;;;;;;;22.56;50.91;98835.36;1414294;82;21066;-72
2022/07/05 00:38:46;;;;;;;9.75;2.60;;;;;;;22.54;50.89;98844.08;1415546;82;21050;-72
2022/07/05 00:40:47;;;;;;;3.87;2.72;;;;;;;22.51;50.94;98841.68;1416717;82;81924;-71
2022/07/05 00:42:48;;;;;;;9.60;2.90;;;;;;;22.50;51.04;98848.55;1413769;82;21516;-71
2022/07/05 00:44:49;;;;;;;13.72;2.70;;;;;;;22.49;51.13;98850.92;1415484;82;21073;-71
2022/07/05 00:46:50;;;;;;;6.37;3.17;;;;;;;22.46;51.32;98852.06;1415019;82;81664;-71
2022/07/05 00:48:51;;;;;;;10.85;3.20;;;;;;;22.43;51.47;98859.06;1414080;82;21004;-71
2022/07/05 00:50:52;;;;;;;3.55;3.25;;;;;;;22.40;51.60;98866.09;1413852;82;21034;-71
2022/07/05 00:52:55;;;;;;;5.90;3.50;;;;;;;22.37;51.73;98869.92;1413949;82;81778;-71
2022/07/05 00:54:55;;;;;;;3.45;3.15;;;;;;;22.33;51.86;98870.35;1416555;82;21018;-71
2022/07/05 00:56:56;;;;;;;5.50;3.27;;;;;;;22.28;51.99;98864.94;1417555;82;21003;-72
2022/07/05 00:58:57;;;;;;;10.60;3.55;;;;;;;22.27;52.21;98866.44;1414593;82;81964;-72
2022/07/05 01:00:59;;;;;;;8.00;3.47;;;;;;;22.22;52.39;98861.53;1414976;82;21567;-72
2022/07/05 01:03:00;;;;;;;9.98;3.35;;;;;;;22.18;52.56;98856.13;1415265;82;21030;-71
2022/07/05 01:05:03;;;;;;;4.50;3.55;;;;;;;22.15;52.54;98856.40;1410807;82;80515;-72
2022/07/05 01:07:05;;;;;;;3.72;3.42;;;;;;;22.10;52.70;98854.18;1417541;82;21529;-72
2022/07/05 01:09:08;;;;;;;14.30;3.98;;;;;;;22.08;52.76;98853.50;1415698;82;21042;-72
2022/07/05 01:11:10;;;;;;;14.65;4.12;;;;;;;22.07;52.89;98851.80;1416827;82;80751;-72
2022/07/05 01:13:11;;;;;;;12.65;4.28;;;;;;;22.05;52.93;98847.58;1415358;82;21050;-71
2022/07/05 01:15:13;;;;;;;6.05;3.98;;;;;;;22.04;53.06;98843.20;1416566;82;21058;-72
2022/07/05 01:17:16;;;;;;;6.12;4.10;;;;;;;22.03;53.13;98847.73;1414242;82;81312;-72
2022/07/05 01:19:19;;;;;;;12.73;4.33;;;;;;;22.02;53.30;98846.55;1418277;82;22164;-71
2022/07/05 01:21:23;;;;;;;8.30;4.10;;;;;;;21.98;53.36;98845.98;1412843;82;21088;-72
2022/07/05 01:23:27;;;;;;;8.68;3.75;;;;;;;21.95;53.53;98847.64;1414079;82;80617;-72
2022/07/05 01:25:29;;;;;;;6.35;4.12;;;;;;;21.93;53.63;98845.11;1416861;82;21014;-72
2022/07/05 01:27:31;;;;;;;10.82;4.62;;;;;;;21.91;53.77;98841.71;1414892;82;21035;-71
2022/07/05 01:29:31;;;;;;;10.03;3.83;;;;;;;21.89;53.80;98838.35;1419373;82;81700;-70
2022/07/05 01:31:33;;;;;;;7.53;4.45;;;;;;;21.86;53.88;98833.29;1418959;82;21006;-71
2022/07/05 01:33:34;;;;;;;8.58;4.10;;;;;;;21.85;53.91;98834.28;1418822;82;21123;-71
2022/07/05 01:35:36;;;;;;;5.15;4.08;;;;;;;21.85;54.02;98826.23;1416159;82;80678;-72
2022/07/05 01:37:38;;;;;;;9.60;3.50;;;;;;;21.84;54.03;98831.23;1414999;82;21031;-71
2022/07/05 01:39:40;;;;;;;13.25;4.53;;;;;;;21.84;54.08;98821.02;1414056;82;21078;-70
2022/07/05 01:41:40;;;;;;;19.40;3.95;;;;;;;21.85;54.12;98820.86;1414353;82;81930;-70
2022/07/05 01:43:42;;;;;;;5.62;3.98;;;;;;;21.83;54.16;98814.78;1405652;83;21083;-71
2022/07/05 01:45:45;;;;;;;9.60;4.22;;;;;;;21.83;54.20;98816.12;1403784;83;21015;-70
2022/07/05 01:47:48;;;;;;;4.45;3.50;;;;;;;21.83;54.26;98815.30;1403867;83;81518;-71
2022/07/05 01:49:53;;;;;;;7.35;4.28;;;;;;;21.82;54.37;98815.80;1404431;83;21066;-70
2022/07/05 01:52:04;;;;;;;8.63;3.90;;;;;;;21.81;54.42;98819.95;1405937;83;21613;-70
2022/07/05 01:54:07;;;;;;;7.67;3.87;;;;;;;21.80;54.46;98813.75;1406197;83;81799;-70
2022/07/05 01:56:08;;;;;;;7.12;4.12;;;;;;;21.78;54.51;98810.39;1406421;83;21015;-71
2022/07/05 01:58:11;;;;;;;6.28;3.83;;;;;;;21.78;54.61;98813.07;1405591;83;21024;-71
2022/07/05 02:00:13;;;;;;;8.23;5.35;;;;;;;21.76;54.72;98808.34;1401231;83;81693;-70
2022/07/05 02:02:14;;;;;;;5.65;3.70;;;;;;;21.72;54.83;98815.00;1403827;83;21012;-70
2022/07/05 02:04:18;;;;;;;7.05;3.67;;;;;;;21.71;54.90;98813.30;1404616;83;21702;-71
2022/07/05 02:06:19;;;;;;;8.80;4.05;;;;;;;21.71;54.99;98817.32;1402003;83;81763;-71
2022/07/05 02:08:20;;;;;;;4.58;4.05;;;;;;;21.66;55.08;98812.41;1406160;83;21438;-70
2022/07/05 02:10:21;;;;;;;6.67;4.33;;;;;;;21.69;55.24;98819.33;1404122;83;21056;-71
2022/07/05 02:12:22;;;;;;;8.70;4.33;;;;;;;21.67;55.36;98812.77;1403360;83;81406;-70
2022/07/05 02:14:23;;;;;;;8.13;4.45;;;;;;;21.65;55.37;98817.93;1404230;83;21035;-70
2022/07/05 02:16:25;;;;;;;4.42;3.95;;;;;;;21.62;55.52;98812.36;1405216;83;21019;-70
2022/07/05 02:18:26;;;;;;;5.40;4.05;;;;;;;21.56;55.59;98814.31;1402948;83;81314;-71
2022/07/05 02:20:28;;;;;;;4.30;3.90;;;;;;;21.51;55.68;98810.68;1404365;83;21094;-70
2022/07/05 02:22:31;;;;;;;9.90;4.00;;;;;;;21.50;55.76;98813.04;1404669;83;21075;-71
2022/07/05 02:24:33;;;;;;;4.70;4.30;;;;;;;21.49;55.82;98819.39;1402958;83;80390;-71
2022/07/05 02:26:34;;;;;;;4.70;4.25;;;;;;;21.46;55.98;98820.17;1404726;83;21043;-71
2022/07/05 02:28:35;;;;;;;4.78;4.05;;;;;;;21.44;56.05;98833.73;1404517;83;81513;-71
2022/07/05 02:30:36;;;;;;;6.92;4.17;;;;;;;21.41;56.15;98832.18;1405206;83;21019;-70
2022/07/05 02:32:37;;;;;;;7.12;4.10;;;;;;;21.40;56.29;98836.35;1402032;83;21570;-71
2022/07/05 02:34:38;;;;;;;4.42;4.03;;;;;;;21.39;56.41;98838.67;1404775;83;81649;-70
2022/07/05 02:36:39;;;;;;;12.30;5.25;;;;;;;21.39;56.63;98848.06;1405301;83;20984;-70
2022/07/05 02:38:41;;;;;;;23.20;5.03;;;;;;;21.37;56.99;98846.87;1407617;83;21059;-70
2022/07/05 02:40:42;;;;;;;6.45;5.78;;;;;;;21.32;57.51;98850.98;1405188;83;81141;-70
2022/07/05 02:42:43;;;;;;;5.83;4.75;;;;;;;21.26;58.10;98846.55;1407319;82;21090;-72
2022/07/05 02:44:44;;;;;;;11.20;6.53;;;;;;;21.22;58.47;98858.55;1402204;83;21110;-71
2022/07/05 02:46:45;;;;;;;8.40;5.12;;;;;;;21.12;58.59;98859.08;1399366;83;81574;-71
2022/07/05 02:48:46;;;;;;;11.45;5.10;;;;;;;21.02;58.75;98858.27;1399475;83;21039;-72
2022/07/05 02:50:47;;;;;;;8.73;5.03;;;;;;;20.90;59.01;98853.05;1401646;83;22098;-73
2022/07/05 02:52:48;;;;;;;7.08;5.03;;;;;;;20.78;59.19;98856.02;1401128;83;81767;-72
2022/07/05 02:54:49;;;;;;;10.75;5.40;;;;;;;20.66;59.45;98857.99;1401861;83;21574;-72
2022/07/05 02:56:50;;;;;;;5.85;5.28;;;;;;;20.53;59.73;98863.61;1401180;83;21000;-72
2022/07/05 02:58:51;;;;;;;10.68;5.50;;;;;;;20.37;60.00;98859.66;1404625;83;81533;-71
2022/07/05 03:00:52;;;;;;;7.58;5.33;;;;;;;20.25;60.21;98858.09;1400383;83;22259;-71
2022/07/05 03:02:53;;;;;;;8.33;5.60;;;;;;;20.12;60.53;98851.67;1399716;83;21316;-72
2022/07/05 03:04:54;;;;;;;9.53;5.55;;;;;;;20.03;60.73;98851.16;1401081;83;80685;-72
2022/07/05 03:06:55;;;;;;;9.15;5.50;;;;;;;19.94;60.89;98846.61;1400013;83;21079;-72
2022/07/05 03:08:56;;;;;;;6.83;5.75;;;;;;;19.87;61.10;98854.37;1402876;83;21046;-72
2022/07/05 03:10:57;;;;;;;19.77;6.15;;;;;;;19.80;61.28;98858.08;1400653;83;81817;-72
2022/07/05 03:12:58;;;;;;;6.28;5.67;;;;;;;19.74;61.44;98854.55;1400206;83;21160;-72
2022/07/05 03:15:00;;;;;;;6.33;5.75;;;;;;;19.68;61.59;98854.61;1401459;83;21585;-72
2022/07/05 03:17:01;;;;;;;9.98;5.58;;;;;;;19.63;61.77;98860.01;1401164;83;81433;-72
2022/07/05 03:19:02;;;;;;;6.37;5.40;;;;;;;19.56;61.95;98863.23;1402307;83;21035;-72
2022/07/05 03:21:03;;;;;;;7.40;6.70;;;;;;;19.52;62.27;98863.14;1402636;83;21008;-72
2022/07/05 03:23:04;;;;;;;7.50;6.80;;;;;;;19.48;62.36;98864.39;1402388;83;80773;-72
2022/07/05 03:25:06;;;;;;;8.48;6.30;;;;;;;19.47;62.62;98873.38;1402481;83;21020;-72
2022/07/05 03:27:07;;;;;;;8.08;7.25;;;;;;;19.43;62.62;98875.97;1402591;83;21526;-72
2022/07/05 03:29:08;;;;;;;9.53;5.83;;;;;;;19.46;62.85;98885.55;1400664;83;80711;-72
2022/07/05 03:31:09;;;;;;;7.03;6.42;;;;;;;19.46;62.98;98889.56;1401039;83;21055;-72
2022/07/05 03:33:10;;;;;;;6.33;5.83;;;;;;;19.47;63.12;98893.44;1402855;83;21335;-72
2022/07/05 03:35:12;;;;;;;9.83;5.78;;;;;;;19.47;63.18;98900.11;1403263;83;80519;-72
2022/07/05 03:37:13;;;;;;;7.00;5.70;;;;;;;19.18;63.27;98863.38;1400040;83;21891;-72
2022/07/05 03:39:14;;;;;;;9.90;6.08;;;;;;;19.42;63.35;98910.35;1401343;83;21054;-72
2022/07/05 03:41:17;;;;;;;6.85;6.25;;;;;;;19.40;63.47;98902.97;1400988;83;80677;-72
2022/07/05 03:43:18;;;;;;;8.63;7.20;;;;;;;19.39;63.60;98898.59;1399002;83;21101;-72
2022/07/05 03:45:20;;;;;;;12.33;6.45;;;;;;;19.40;63.79;98900.30;1395260;84;21031;-72
2022/07/05 03:47:21;;;;;;;8.83;6.28;;;;;;;19.42;64.05;98898.32;1395143;83;81793;-73
2022/07/05 03:49:22;;;;;;;7.72;6.05;;;;;;;19.43;64.10;98904.03;1394641;84;21007;-72
2022/07/05 03:51:23;;;;;;;19.98;6.53;;;;;;;19.44;64.20;98915.09;1394918;84;21091;-73
2022/07/05 03:53:24;;;;;;;7.12;6.37;;;;;;;19.43;64.20;98904.53;1393380;83;81989;-73
2022/07/05 03:55:25;;;;;;;7.53;6.83;;;;;;;19.44;64.34;98907.54;1394440;84;21031;-72
2022/07/05 03:57:26;;;;;;;8.48;7.12;;;;;;;19.43;64.75;98904.53;1394568;83;22180;-73
2022/07/05 03:59:27;;;;;;;7.62;6.92;;;;;;;19.41;64.89;98899.30;1393725;83;80618;-73
2022/07/05 04:01:28;;;;;;;53.05;8.90;;;;;;;19.40;65.04;98891.77;1395937;83;21031;-73
2022/07/05 04:03:29;;;;;;;124.75;12.50;;;;;;;19.42;65.10;98896.98;1396294;84;21699;-74
2022/07/05 04:05:30;;;;;;;147.68;15.05;;;;;;;19.43;65.18;98889.83;1396716;83;81214;-73
2022/07/05 04:07:34;;;;;;;173.17;13.83;;;;;;;19.44;65.25;98892.38;1395034;84;21088;-73
2022/07/05 04:09:35;;;;;;;74.40;10.35;;;;;;;19.45;65.26;98891.37;1387150;84;21047;-73
2022/07/05 04:11:36;;;;;;;26.15;7.42;;;;;;;19.40;65.28;98899.80;1395940;83;80989;-73
2022/07/05 04:13:37;;;;;;;10.05;6.72;;;;;;;19.39;65.32;98905.27;1396136;84;21043;-73
2022/07/05 04:15:39;;;;;;;8.78;7.78;;;;;;;19.37;65.44;98903.20;1396403;84;21022;-73
2022/07/05 04:17:55;;;;;;;7.42;6.70;;;;;;;19.37;65.58;98911.23;1395020;83;81430;-73
2022/07/05 04:19:57;;;;;;;8.93;7.10;;;;;;;19.36;65.64;98916.23;1388405;84;21039;-73
2022/07/05 04:21:58;;;;;;;8.20;6.45;;;;;;;19.36;65.64;98912.23;1397082;83;21011;-72
2022/07/05 04:23:59;;;;;;;6.70;5.92;;;;;;;19.37;65.63;98912.56;1391713;84;80823;-73
2022/07/05 04:26:01;;;;;;;10.03;6.70;;;;;;;19.38;65.52;98919.14;1397460;84;21043;-72
2022/07/05 04:28:03;;;;;;;6.15;5.55;;;;;;;19.40;65.54;98913.66;1394354;83;21029;-73
2022/07/05 04:30:04;;;;;;;8.90;6.28;;;;;;;19.40;65.50;98920.34;1393666;84;81790;-73
2022/07/05 04:32:06;;;;;;;7.33;6.12;;;;;;;19.41;65.53;98931.37;1396463;84;21071;-73
2022/07/05 04:34:07;;;;;;;8.40;6.25;;;;;;;19.43;65.72;98916.06;1396929;84;21071;-73
2022/07/05 04:36:08;;;;;;;11.97;6.62;;;;;;;19.46;65.75;98917.63;1394763;84;81447;-73
2022/07/05 04:38:09;;;;;;;10.10;7.20;;;;;;;19.45;65.60;98931.46;1395050;84;21035;-73
2022/07/05 04:40:12;;;;;;;12.50;6.87;;;;;;;19.45;65.77;98924.78;1396541;84;21064;-72
2022/07/05 04:42:13;;;;;;;8.08;7.30;;;;;;;19.46;65.77;98921.14;1394452;84;80806;-72
2022/07/05 04:44:14;;;;;;;12.88;7.67;;;;;;;19.45;65.90;98932.80;1393907;84;21063;-72
2022/07/05 04:46:15;;;;;;;9.00;7.53;;;;;;;19.43;65.90;98942.79;1396265;83;21985;-72
2022/07/05 04:48:16;;;;;;;22.20;8.55;;;;;;;19.40;65.96;98940.39;1395329;83;81415;-74
2022/07/05 04:50:17;;;;;;;18.85;8.55;;;;;;;19.35;66.09;98939.92;1395881;84;21016;-72
2022/07/05 04:52:19;;;;;;;10.98;7.85;;;;;;;19.29;66.21;98937.29;1395677;83;21016;-72
2022/07/05 04:54:20;;;;;;;15.30;8.80;;;;;;;19.25;66.18;98936.36;1392813;83;80853;-72
2022/07/05 04:56:21;;;;;;;14.75;8.65;;;;;;;19.18;66.32;98928.84;1395935;84;21031;-72
2022/07/05 04:58:22;;;;;;;14.23;8.80;;;;;;;19.14;66.51;98926.07;1395531;84;21043;-72
2022/07/05 05:00:24;;;;;;;11.30;9.83;;;;;;;19.09;66.68;98925.61;1394169;84;80545;-73
2022/07/05 05:02:24;;;;;;;18.90;9.78;;;;;;;19.05;66.91;98922.83;1391348;84;21003;-71
2022/07/05 05:04:26;;;;;;;10.13;6.67;;;;;;;19.05;67.16;98925.50;1396566;84;21066;-71
2022/07/05 05:06:27;;;;;;;7.58;5.80;;;;;;;19.00;67.19;98921.06;1394906;83;81292;-72
2022/07/05 05:08:28;;;;;;;6.20;5.30;;;;;;;18.96;67.35;98919.13;1396009;84;20961;-72
2022/07/05 05:10:29;;;;;;;12.33;6.08;;;;;;;18.91;67.32;98924.49;1394024;84;21473;-72
2022/07/05 05:12:30;;;;;;;17.87;6.10;;;;;;;18.85;67.73;98919.15;1373215;85;81593;-72
2022/07/05 05:14:31;;;;;;;14.05;6.25;;;;;;;18.81;67.96;98927.06;1394682;84;21554;-72
2022/07/05 05:16:32;;;;;;;28.67;6.85;;;;;;;18.76;67.97;98923.45;1396543;84;21023;-72
2022/07/05 05:18:33;;;;;;;6.03;5.22;;;;;;;18.75;67.97;98928.88;1396660;83;21027;-72
2022/07/05 05:20:34;;;;;;;11.57;5.65;;;;;;;18.73;67.93;98929.02;1395581;84;20996;-72
2022/07/05 05:22:35;;;;;;;10.68;6.47;;;;;;;18.70;67.92;98927.94;1394544;84;81471;-72
2022/07/05 05:24:36;;;;;;;7.00;5.62;;;;;;;18.69;67.98;98927.58;1394213;84;21071;-71
2022/07/05 05:26:37;;;;;;;9.73;5.75;;;;;;;18.68;68.10;98923.23;1397466;83;20984;-71
2022/07/05 05:28:38;;;;;;;8.63;5.75;;;;;;;18.66;68.04;98930.50;1396337;84;81610;-71
2022/07/05 05:30:40;;;;;;;11.33;6.35;;;;;;;18.63;68.19;98924.09;1396340;84;21551;-71
2022/07/05 05:32:41;;;;;;;8.88;6.78;;;;;;;18.61;68.19;98925.56;1397007;84;20952;-71
2022/07/05 05:34:42;;;;;;;78.00;9.33;;;;;;;18.59;68.37;98918.64;1395161;83;80722;-71
2022/07/05 05:36:43;;;;;;;12.93;6.50;;;;;;;18.60;68.57;98923.02;1393799;83;21047;-71
2022/07/05 05:38:43;;;;;;;35.90;7.62;;;;;;;18.55;68.56;98913.56;1395279;84;21067;-72
2022/07/05 05:40:44;;;;;;;15.28;7.17;;;;;;;18.59;68.65;98925.31;1393612;84;80980;-71
2022/07/05 05:42:45;;;;;;;37.35;8.40;;;;;;;18.62;68.82;98925.06;1395737;84;21005;-71
2022/07/05 05:44:47;;;;;;;37.20;7.65;;;;;;;18.64;68.88;98925.30;1403614;83;20965;-72
2022/07/05 05:46:48;;;;;;;24.15;6.80;;;;;;;18.68;68.99;98917.89;1399808;83;81926;-72
2022/07/05 05:48:49;;;;;;;31.42;7.83;;;;;;;18.69;68.93;98923.10;1403805;83;21093;-72
2022/07/05 05:50:51;;;;;;;6.30;5.80;;;;;;;18.70;68.93;98929.28;1401142;83;22635;-71
2022/07/05 05:52:53;;;;;;;22.40;6.95;;;;;;;18.69;68.84;98924.91;1401479;83;80906;-72
2022/07/05 05:54:54;;;;;;;16.30;6.12;;;;;;;18.66;68.88;98926.50;1402800;83;21054;-70
2022/07/05 05:56:55;;;;;;;10.98;5.60;;;;;;;18.64;68.96;98925.30;1403433;83;21066;-71
2022/07/05 05:58:56;;;;;;;6.78;6.20;;;;;;;18.64;69.03;98924.46;1403200;83;81497;-70
2022/07/05 06:00:57;;;;;;;6.85;6.12;;;;;;;18.64;69.07;98932.47;1404688;83;20975;-71
2022/07/05 06:02:58;;;;;;;12.95;5.95;;;;;;;18.63;69.14;98941.44;1407151;83;21587;-71
2022/07/05 06:04:59;;;;;;;7.25;5.65;;;;;;;18.61;69.20;98942.91;1400197;83;80902;-71
2022/07/05 06:07:00;;;;;;;11.40;5.83;;;;;;;18.61;69.22;98945.58;1401792;83;21055;-72
2022/07/05 06:09:01;;;;;;;7.40;5.75;;;;;;;18.61;69.25;98954.92;1404114;83;21535;-72
2022/07/05 06:11:04;;;;;;;6.78;6.03;;;;;;;18.61;69.25;98959.39;1402631;83;80656;-72
2022/07/05 06:13:07;;;;;;;12.47;6.05;;;;;;;18.60;69.28;98961.23;1404281;83;21055;-72
2022/07/05 06:15:09;;;;;;;8.38;6.22;;;;;;;18.58;69.36;98971.66;1405603;83;21369;-72
2022/07/05 06:17:10;;;;;;;9.55;6.75;;;;;;;18.57;69.52;98985.51;1404179;83;80586;-72
2022/07/05 06:19:11;;;;;;;10.50;7.15;;;;;;;18.57;69.71;98996.66;1406529;83;21023;-72
2022/07/05 06:21:12;;;;;;;12.50;7.85;;;;;;;18.57;69.84;99004.20;1403750;83;21066;-71
2022/07/05 06:23:13;;;;;;;8.10;7.17;;;;;;;18.57;69.90;99014.00;1401673;83;81028;-71
2022/07/05 06:25:14;;;;;;;18.37;7.60;;;;;;;18.56;70.02;99023.84;1405965;83;21046;-71
2022/07/05 06:27:15;;;;;;;83.70;11.00;;;;;;;18.53;70.08;99040.95;1403822;83;20995;-73
2022/07/05 06:29:16;;;;;;;32.88;9.38;;;;;;;18.50;70.22;99046.55;1387248;84;81779;-73
2022/07/05 06:31:17;;;;;;;;;;;;;;;18.46;70.34;99054.43;1403837;83;20996;-73
2022/07/05 06:33:19;;;;;;;22.42;9.13;;;;;;;18.40;70.72;99052.27;1401237;83;20131;-70
2022/07/05 06:35:22;;;;;;;21.05;9.65;;;;;;;18.36;70.68;99060.16;1401254;83;80822;-70
2022/07/05 06:37:23;;;;;;;20.95;9.58;;;;;;;18.33;70.80;99064.37;1401858;83;21074;-72
2022/07/05 06:39:25;;;;;;;18.67;8.93;;;;;;;18.31;70.93;99065.83;1402419;83;21070;-71
2022/07/05 06:41:26;;;;;;;17.37;9.43;;;;;;;18.27;71.02;99066.20;1399083;83;80738;-72
2022/07/05 06:43:27;;;;;;;19.30;11.03;;;;;;;18.24;71.15;99075.30;1379083;84;21041;-72
2022/07/05 06:45:29;;;;;;;33.70;11.95;;;;;;;18.21;71.25;99068.38;1403484;83;21158;-71
2022/07/05 06:47:30;;;;;;;27.13;12.33;;;;;;;18.22;71.34;99073.25;1402963;83;80804;-72
2022/07/05 06:49:31;;;;;;;29.50;12.58;;;;;;;18.23;71.47;99072.75;1404354;83;21047;-72
2022/07/05 06:51:32;;;;;;;63.20;13.50;;;;;;;18.24;71.59;99075.79;1390320;84;21029;-72
2022/07/05 06:53:33;;;;;;;644.75;32.85;;;;;;;18.23;71.73;99070.92;1404402;83;81036;-72
2022/07/05 06:55:34;;;;;;;338.95;20.50;;;;;;;18.25;72.44;99071.67;1402610;83;21608;-74
2022/07/05 06:57:35;;;;;;;81.05;14.53;;;;;;;18.22;74.19;99070.58;1402675;83;21075;-73
2022/07/05 06:59:37;;;;;;;49.50;14.53;;;;;;;18.16;74.49;99077.22;1404915;83;81812;-73
2022/07/05 07:01:38;;;;;;;32.70;14.18;;;;;;;18.12;74.66;99081.59;1403030;83;21050;-73
2022/07/05 07:03:39;;;;;;;42.00;14.00;;;;;;;18.08;74.31;99085.46;1363746;85;21039;-73
2022/07/05 07:05:40;;;;;;;32.17;14.30;;;;;;;18.03;74.13;99088.50;1402927;83;81115;-74
2022/07/05 07:10:01;;;;;;;68.62;17.35;;;;;;;17.98;74.11;99077.33;1400939;83;21027;-73
2022/07/05 07:12:03;;;;;;;119.53;18.67;;;;;;;18.01;74.14;99077.08;1390011;84;81949;-74
2022/07/05 07:14:04;;;;;;;168.75;20.27;;;;;;;18.02;74.04;99080.13;1389988;84;20999;-73
2022/07/05 07:16:05;;;;;;;83.52;17.62;;;;;;;18.04;74.10;99074.17;1411118;83;21113;-72
2022/07/05 07:18:06;;;;;;;82.85;17.75;;;;;;;18.06;74.10;99064.25;1411615;83;81870;-73
2022/07/05 07:20:08;;;;;;;372.00;26.55;;;;;;;18.05;74.03;99059.88;1402479;83;21071;-73
2022/07/05 07:22:09;;;;;;;54.50;18.65;;;;;;;18.06;74.10;99070.08;1401211;83;21519;-72
2022/07/05 07:24:11;;;;;;;229.78;22.27;;;;;;;18.05;74.34;99061.20;1400594;83;81015;-74
2022/07/05 07:26:13;;;;;;;67.03;16.45;;;;;;;18.05;74.35;99055.87;1404563;83;21073;-72
2022/07/05 07:28:14;;;;;;;42.67;16.50;;;;;;;18.08;74.45;99054.29;1406835;83;21030;-72
2022/07/05 07:30:18;;;;;;;40.80;15.63;;;;;;;18.06;74.50;99044.73;1387811;84;82001;-72
2022/07/05 07:32:19;;;;;;;44.27;16.73;;;;;;;18.04;74.53;99047.50;1403999;83;21040;-72
2022/07/05 07:34:20;;;;;;;44.53;17.37;;;;;;;18.02;74.59;99046.78;1400257;83;21044;-72
2022/07/05 07:36:21;;;;;;;33.00;15.30;;;;;;;18.04;74.72;99046.16;1402083;83;81313;-72
2022/07/05 07:38:22;;;;;;;20.40;15.20;;;;;;;18.04;74.71;99035.50;1404714;83;21011;-72
2022/07/05 07:40:23;;;;;;;31.12;15.58;;;;;;;18.05;74.94;99033.20;1362009;85;21749;-72
2022/07/05 07:42:25;;;;;;;19.65;13.32;;;;;;;18.05;74.94;99033.20;1365235;85;81973;-72
2022/07/05 07:44:26;;;;;;;31.30;14.47;;;;;;;18.01;74.87;99034.41;1389517;84;21118;-72
2022/07/05 07:46:27;;;;;;;24.18;14.60;;;;;;;17.97;74.97;99035.62;1391842;84;21448;-72
2022/07/05 07:48:29;;;;;;;29.75;15.15;;;;;;;17.95;75.04;99038.41;1411101;83;80940;-73
2022/07/05 07:50:30;;;;;;;27.85;14.50;;;;;;;17.98;75.31;99039.98;1391040;84;21023;-72
2022/07/05 07:52:33;;;;;;;21.37;14.25;;;;;;;17.96;75.55;99034.78;1411898;83;21163;-72
2022/07/05 07:54:34;;;;;;;21.82;14.55;;;;;;;17.95;75.67;99030.41;1410540;83;80822;-72
2022/07/05 07:56:35;;;;;;;18.32;12.60;;;;;;;17.98;75.72;99029.33;1367342;85;21271;-74
2022/07/05 07:58:36;;;;;;;23.60;13.93;;;;;;;17.95;75.74;99032.23;1367159;85;81966;-74
2022/07/05 08:00:37;;;;;;;17.67;13.28;;;;;;;17.93;75.77;99030.16;1365025;85;21092;-73
2022/07/05 08:02:38;;;;;;;14.70;11.85;;;;;;;17.93;75.84;99023.48;1410273;83;21062;-73
2022/07/05 08:04:39;;;;;;;15.03;11.55;;;;;;;17.96;75.88;99024.11;1412479;83;81963;-73
2022/07/05 08:06:41;;;;;;;20.15;11.83;;;;;;;17.93;75.93;99022.16;1411071;83;21019;-73
2022/07/05 08:08:48;;;;;;;14.47;10.75;;;;;;;17.93;76.01;99020.83;1411615;83;21615;-72
2022/07/05 08:10:46;;;;;;;14.47;10.48;;;;;;;17.96;76.09;99024.61;1408180;83;82055;-71
2022/07/05 08:12:47;;;;;;;13.43;10.50;;;;;;;17.98;76.09;99019.98;1390694;84;21458;-72
2022/07/05 08:14:48;;;;;;;;;;;;;;;17.98;76.13;99023.49;1413328;83;21493;-72
2022/07/05 08:16:49;;;;;;;;;;;;;;;17.98;76.29;99021.32;1412570;83;68170;-72
2022/07/05 08:23:30;;;;;;;16.07;10.58;;;;;;;18.06;76.39;99018.91;1412541;83;81675;-72
2022/07/05 08:25:31;;;;;;;13.78;11.25;;;;;;;18.09;76.40;99017.81;1391946;84;21132;-72
2022/07/05 08:27:32;;;;;;;19.73;12.60;;;;;;;18.12;76.38;99023.73;1416355;82;20976;-72
2022/07/05 08:29:34;;;;;;;19.45;13.13;;;;;;;18.15;76.40;99018.19;1415392;82;81205;-71
2022/07/05 08:31:41;;;;;;;15.98;14.28;;;;;;;18.16;76.42;99019.86;1415581;82;21562;-72
2022/07/05 08:33:42;;;;;;;13.72;11.15;;;;;;;18.19;76.53;99019.64;1418704;82;21533;-72
2022/07/05 08:35:43;;;;;;;14.30;12.82;;;;;;;18.20;76.44;99022.65;1386568;84;81148;-71
2022/07/05 08:37:44;;;;;;;20.48;14.58;;;;;;;18.19;76.48;99026.31;1410815;83;21047;-71
2022/07/05 08:39:45;;;;;;;25.43;14.38;;;;;;;18.20;76.50;99022.65;1412060;83;21058;-71
2022/07/05 08:41:51;;;;;;;19.10;14.58;;;;;;;18.24;76.58;99023.77;1411179;83;81904;-71
2022/07/05 08:43:52;;;;;;;18.25;13.38;;;;;;;18.25;76.63;99024.97;1408530;83;21125;-72
2022/07/05 08:45:55;;;;;;;24.90;13.93;;;;;;;18.29;76.63;99022.89;1396021;84;21039;-71
2022/07/05 08:47:59;;;;;;;18.67;14.40;;;;;;;18.31;76.68;99023.63;1386924;84;81899;-72
2022/07/05 08:50:02;;;;;;;20.80;15.28;;;;;;;18.32;76.68;99022.17;1393049;84;21559;-71
2022/07/05 08:52:06;;;;;;;18.77;15.63;;;;;;;18.34;76.74;99028.22;1394424;83;21001;-71
2022/07/05 08:54:12;;;;;;;18.85;15.00;;;;;;;18.35;76.72;99026.42;1413273;83;81791;-71
2022/07/05 08:56:14;;;;;;;22.27;15.28;;;;;;;18.38;76.79;99015.50;1412974;83;21337;-71
2022/07/05 08:58:15;;;;;;;19.17;12.65;;;;;;;18.37;76.77;99017.80;1414079;83;21074;-72
2022/07/05 09:00:16;;;;;;;18.20;14.78;;;;;;;18.36;76.72;99014.29;1411133;83;80894;-72
2022/07/05 09:02:19;;;;;;;22.55;16.15;;;;;;;18.35;76.81;99011.75;1386640;84;21028;-72
2022/07/05 09:04:22;;;;;;;16.45;14.40;;;;;;;18.37;76.90;99011.99;1392885;84;21541;-72
2022/07/05 09:06:28;;;;;;;26.17;15.25;;;;;;;18.40;76.95;99008.23;1393338;84;81840;-72
2022/07/05 09:08:38;;;;;;;14.68;13.00;;;;;;;18.41;76.95;99006.40;1392784;84;20992;-71
2022/07/05 09:10:39;;;;;;;25.97;14.53;;;;;;;18.42;76.95;99008.11;1393429;83;81075;-70
2022/07/05 09:12:40;;;;;;;19.57;13.62;;;;;;;18.42;77.00;99010.28;1395055;84;21013;-71
2022/07/05 09:14:41;;;;;;;20.45;14.63;;;;;;;18.46;77.06;99010.89;1396481;84;21029;-72
2022/07/05 09:16:42;;;;;;;16.55;14.73;;;;;;;18.46;77.08;99002.88;1393363;83;81135;-71
2022/07/05 09:18:53;;;;;;;15.40;13.65;;;;;;;18.48;77.09;99005.77;1395153;83;21095;-74
2022/07/05 09:20:58;;;;;;;26.75;13.53;;;;;;;18.50;77.13;98999.83;1395135;84;21079;-72
2022/07/05 09:22:59;;;;;;;22.82;13.18;;;;;;;18.52;77.14;98993.03;1394116;83;82024;-71
2022/07/05 09:25:04;;;;;;;19.23;13.93;;;;;;;18.54;77.09;98991.94;1394081;84;21022;-71
2022/07/05 09:27:05;;;;;;;20.88;15.38;;;;;;;18.52;77.11;98991.20;1409282;83;21026;-71
2022/07/05 09:29:09;;;;;;;19.75;15.63;;;;;;;18.57;77.27;98997.98;1411401;83;81031;-71
2022/07/05 09:31:13;;;;;;;20.95;14.78;;;;;;;18.58;77.31;98994.35;1414145;83;21021;-71
2022/07/05 09:33:15;;;;;;;16.30;14.58;;;;;;;18.64;77.34;99003.22;1410379;83;21050;-71